sensor_id;sensor_type;location;lat;lon;timestamp;temperature;humidity
3562;DHT22;1795;52.074;4.754;2023-05-10T00:02:22;14.10;99.90
3562;DHT22;1795;52.074;4.754;2023-05-10T00:04:50;14.10;99.90
3562;DHT22;1795;52.074;4.754;2023-05-10T00:07:18;14.00;99.90
3562;DHT22;1795;52.074;4.754;2023-05-10T00:09:46;14.10;99.90
3562;DHT22;1795;52.074;4.754;2023-05-10T00:12:14;14.00;99.90
3562;DHT22;1795;52.074;4.754;2023-05-10T00:14:42;14.00;99.90
3562;DHT22;1795;52.074;4.754;2023-05-10T00:17:11;14.00;99.90
3562;DHT22;1795;52.074;4.754;2023-05-10T00:19:39;14.00;99.90
3562;DHT22;1795;52.074;4.754;2023-05-10T00:22:07;14.00;99.90
3562;DHT22;1795;52.074;4.754;2023-05-10T00:24:35;13.90;99.90
3562;DHT22;1795;52.074;4.754;2023-05-10T00:27:03;13.90;99.90
3562;DHT22;1795;52.074;4.754;2023-05-10T00:29:31;13.90;99.90
3562;DHT22;1795;52.074;4.754;2023-05-10T00:32:00;13.90;99.90
3562;DHT22;1795;52.074;4.754;2023-05-10T00:34:29;13.90;99.90
3562;DHT22;1795;52.074;4.754;2023-05-10T00:36:57;13.90;99.90
3562;DHT22;1795;52.074;4.754;2023-05-10T00:39:25;13.90;99.90
3562;DHT22;1795;52.074;4.754;2023-05-10T00:41:55;13.80;99.90
3562;DHT22;1795;52.074;4.754;2023-05-10T00:44:23;13.80;99.90
3562;DHT22;1795;52.074;4.754;2023-05-10T00:46:51;13.80;99.90
3562;DHT22;1795;52.074;4.754;2023-05-10T00:49:19;13.80;99.90
3562;DHT22;1795;52.074;4.754;2023-05-10T00:51:50;13.80;99.90
3562;DHT22;1795;52.074;4.754;2023-05-10T00:54:18;13.70;99.90
3562;DHT22;1795;52.074;4.754;2023-05-10T00:56:46;13.70;99.90
3562;DHT22;1795;52.074;4.754;2023-05-10T00:59:15;13.70;99.90
3562;DHT22;1795;52.074;4.754;2023-05-10T01:01:44;13.70;99.90
3562;DHT22;1795;52.074;4.754;2023-05-10T01:04:13;13.70;99.90
3562;DHT22;1795;52.074;4.754;2023-05-10T01:06:41;13.70;99.90
3562;DHT22;1795;52.074;4.754;2023-05-10T01:09:10;13.60;99.90
3562;DHT22;1795;52.074;4.754;2023-05-10T01:11:40;13.60;99.90
3562;DHT22;1795;52.074;4.754;2023-05-10T01:14:08;13.60;99.90
3562;DHT22;1795;52.074;4.754;2023-05-10T01:16:38;13.60;99.90
3562;DHT22;1795;52.074;4.754;2023-05-10T01:19:11;13.60;99.90
3562;DHT22;1795;52.074;4.754;2023-05-10T01:21:45;13.60;99.90
3562;DHT22;1795;52.074;4.754;2023-05-10T01:24:40;13.60;99.90
3562;DHT22;1795;52.074;4.754;2023-05-10T01:27:20;13.50;99.90
3562;DHT22;1795;52.074;4.754;2023-05-10T01:30:08;13.50;99.90
3562;DHT22;1795;52.074;4.754;2023-05-10T01:32:48;13.50;99.90
3562;DHT22;1795;52.074;4.754;2023-05-10T01:35:22;13.50;99.90
3562;DHT22;1795;52.074;4.754;2023-05-10T01:37:58;13.50;99.90
3562;DHT22;1795;52.074;4.754;2023-05-10T01:40:32;13.50;99.90
3562;DHT22;1795;52.074;4.754;2023-05-10T01:43:07;13.50;99.90
3562;DHT22;1795;52.074;4.754;2023-05-10T01:45:39;13.50;99.90
3562;DHT22;1795;52.074;4.754;2023-05-10T01:48:11;13.50;99.90
3562;DHT22;1795;52.074;4.754;2023-05-10T01:50:43;13.50;99.90
3562;DHT22;1795;52.074;4.754;2023-05-10T01:53:13;13.50;99.90
3562;DHT22;1795;52.074;4.754;2023-05-10T01:55:47;13.50;99.90
3562;DHT22;1795;52.074;4.754;2023-05-10T01:58:20;13.50;99.90
3562;DHT22;1795;52.074;4.754;2023-05-10T02:00:49;13.50;99.90
3562;DHT22;1795;52.074;4.754;2023-05-10T02:03:23;13.50;99.90
3562;DHT22;1795;52.074;4.754;2023-05-10T02:05:52;13.50;99.90
3562;DHT22;1795;52.074;4.754;2023-05-10T02:08:22;13.50;99.90
3562;DHT22;1795;52.074;4.754;2023-05-10T02:10:54;13.50;99.90
3562;DHT22;1795;52.074;4.754;2023-05-10T02:13:23;13.50;99.90
3562;DHT22;1795;52.074;4.754;2023-05-10T02:15:53;13.50;99.90
3562;DHT22;1795;52.074;4.754;2023-05-10T02:18:24;13.50;99.90
3562;DHT22;1795;52.074;4.754;2023-05-10T02:20:54;13.50;99.90
3562;DHT22;1795;52.074;4.754;2023-05-10T02:23:23;13.50;99.90
3562;DHT22;1795;52.074;4.754;2023-05-10T02:25:54;13.50;99.90
3562;DHT22;1795;52.074;4.754;2023-05-10T02:28:23;13.60;99.90
3562;DHT22;1795;52.074;4.754;2023-05-10T02:30:53;13.60;99.90
3562;DHT22;1795;52.074;4.754;2023-05-10T02:33:23;13.60;99.90
3562;DHT22;1795;52.074;4.754;2023-05-10T02:35:52;13.60;99.90
3562;DHT22;1795;52.074;4.754;2023-05-10T02:38:22;13.60;99.90
3562;DHT22;1795;52.074;4.754;2023-05-10T02:40:51;13.60;99.90
3562;DHT22;1795;52.074;4.754;2023-05-10T02:43:23;13.60;99.90
3562;DHT22;1795;52.074;4.754;2023-05-10T02:45:52;13.60;99.90
3562;DHT22;1795;52.074;4.754;2023-05-10T02:48:20;13.60;99.90
3562;DHT22;1795;52.074;4.754;2023-05-10T02:50:52;13.60;99.90
3562;DHT22;1795;52.074;4.754;2023-05-10T02:53:23;13.60;99.90
3562;DHT22;1795;52.074;4.754;2023-05-10T02:56:00;13.60;99.90
3562;DHT22;1795;52.074;4.754;2023-05-10T02:58:32;13.60;99.90
3562;DHT22;1795;52.074;4.754;2023-05-10T03:01:01;13.60;99.90
3562;DHT22;1795;52.074;4.754;2023-05-10T03:03:29;13.60;99.90
3562;DHT22;1795;52.074;4.754;2023-05-10T03:05:59;13.70;99.90
3562;DHT22;1795;52.074;4.754;2023-05-10T03:08:28;13.70;99.90
3562;DHT22;1795;52.074;4.754;2023-05-10T03:11:15;13.70;99.90
3562;DHT22;1795;52.074;4.754;2023-05-10T03:13:52;13.70;99.90
3562;DHT22;1795;52.074;4.754;2023-05-10T03:16:27;13.70;99.90
3562;DHT22;1795;52.074;4.754;2023-05-10T03:19:00;13.70;99.90
3562;DHT22;1795;52.074;4.754;2023-05-10T03:21:31;13.70;99.90
3562;DHT22;1795;52.074;4.754;2023-05-10T03:24:05;13.70;99.90
3562;DHT22;1795;52.074;4.754;2023-05-10T03:26:35;13.70;99.90
3562;DHT22;1795;52.074;4.754;2023-05-10T03:29:04;13.70;99.90
3562;DHT22;1795;52.074;4.754;2023-05-10T03:31:33;13.70;99.90
3562;DHT22;1795;52.074;4.754;2023-05-10T03:34:01;13.70;99.90
3562;DHT22;1795;52.074;4.754;2023-05-10T03:36:30;13.70;99.90
3562;DHT22;1795;52.074;4.754;2023-05-10T03:38:59;13.70;99.90
3562;DHT22;1795;52.074;4.754;2023-05-10T03:41:27;13.70;99.90
3562;DHT22;1795;52.074;4.754;2023-05-10T03:43:55;13.70;99.90
3562;DHT22;1795;52.074;4.754;2023-05-10T03:46:23;13.70;99.90
3562;DHT22;1795;52.074;4.754;2023-05-10T03:48:51;13.70;99.90
3562;DHT22;1795;52.074;4.754;2023-05-10T03:51:19;13.80;99.90
3562;DHT22;1795;52.074;4.754;2023-05-10T03:53:50;13.70;99.90
3562;DHT22;1795;52.074;4.754;2023-05-10T03:56:18;13.80;99.90
3562;DHT22;1795;52.074;4.754;2023-05-10T03:58:47;13.80;99.90
3562;DHT22;1795;52.074;4.754;2023-05-10T04:01:15;13.80;99.90
3562;DHT22;1795;52.074;4.754;2023-05-10T04:03:43;13.80;99.90
3562;DHT22;1795;52.074;4.754;2023-05-10T04:06:11;13.80;99.90
3562;DHT22;1795;52.074;4.754;2023-05-10T04:08:40;13.80;99.90
3562;DHT22;1795;52.074;4.754;2023-05-10T04:11:10;13.80;99.90
3562;DHT22;1795;52.074;4.754;2023-05-10T04:13:39;13.80;99.90
3562;DHT22;1795;52.074;4.754;2023-05-10T04:16:07;13.80;99.90
3562;DHT22;1795;52.074;4.754;2023-05-10T04:18:36;13.80;99.90
3562;DHT22;1795;52.074;4.754;2023-05-10T04:21:04;13.80;99.90
3562;DHT22;1795;52.074;4.754;2023-05-10T04:23:32;13.80;99.90
3562;DHT22;1795;52.074;4.754;2023-05-10T04:26:01;13.80;99.90
3562;DHT22;1795;52.074;4.754;2023-05-10T04:28:31;13.80;99.90
3562;DHT22;1795;52.074;4.754;2023-05-10T04:31:03;13.80;99.90
3562;DHT22;1795;52.074;4.754;2023-05-10T04:33:31;13.80;99.90
3562;DHT22;1795;52.074;4.754;2023-05-10T04:36:00;13.80;99.90
3562;DHT22;1795;52.074;4.754;2023-05-10T04:38:29;13.80;99.90
3562;DHT22;1795;52.074;4.754;2023-05-10T04:41:04;13.80;99.90
3562;DHT22;1795;52.074;4.754;2023-05-10T04:43:34;13.80;99.90
3562;DHT22;1795;52.074;4.754;2023-05-10T04:46:03;13.80;99.90
3562;DHT22;1795;52.074;4.754;2023-05-10T04:48:32;13.80;99.90
3562;DHT22;1795;52.074;4.754;2023-05-10T04:51:00;13.80;99.90
3562;DHT22;1795;52.074;4.754;2023-05-10T04:53:30;13.80;99.90
3562;DHT22;1795;52.074;4.754;2023-05-10T04:55:59;13.80;99.90
3562;DHT22;1795;52.074;4.754;2023-05-10T04:58:27;13.80;99.90
3562;DHT22;1795;52.074;4.754;2023-05-10T05:00:56;13.80;99.90
3562;DHT22;1795;52.074;4.754;2023-05-10T05:03:24;13.80;99.90
3562;DHT22;1795;52.074;4.754;2023-05-10T05:05:52;13.80;99.90
3562;DHT22;1795;52.074;4.754;2023-05-10T05:08:20;13.80;99.90
3562;DHT22;1795;52.074;4.754;2023-05-10T05:10:48;13.80;99.90
3562;DHT22;1795;52.074;4.754;2023-05-10T05:13:17;13.80;99.90
3562;DHT22;1795;52.074;4.754;2023-05-10T05:15:45;13.80;99.90
3562;DHT22;1795;52.074;4.754;2023-05-10T05:18:15;13.80;99.90
3562;DHT22;1795;52.074;4.754;2023-05-10T05:20:43;13.80;99.90
3562;DHT22;1795;52.074;4.754;2023-05-10T05:23:11;13.80;99.90
3562;DHT22;1795;52.074;4.754;2023-05-10T05:25:38;13.80;99.90
3562;DHT22;1795;52.074;4.754;2023-05-10T05:28:06;13.80;99.90
3562;DHT22;1795;52.074;4.754;2023-05-10T05:30:34;13.80;99.90
3562;DHT22;1795;52.074;4.754;2023-05-10T05:33:02;13.80;99.90
3562;DHT22;1795;52.074;4.754;2023-05-10T05:35:32;13.90;99.90
3562;DHT22;1795;52.074;4.754;2023-05-10T05:38:00;13.90;99.90
3562;DHT22;1795;52.074;4.754;2023-05-10T05:40:28;13.90;99.90
3562;DHT22;1795;52.074;4.754;2023-05-10T05:42:56;13.90;99.90
3562;DHT22;1795;52.074;4.754;2023-05-10T05:45:24;13.90;99.90
3562;DHT22;1795;52.074;4.754;2023-05-10T05:47:52;13.90;99.90
3562;DHT22;1795;52.074;4.754;2023-05-10T05:50:20;13.90;99.90
3562;DHT22;1795;52.074;4.754;2023-05-10T05:52:49;13.90;99.90
3562;DHT22;1795;52.074;4.754;2023-05-10T05:55:17;13.90;99.90
3562;DHT22;1795;52.074;4.754;2023-05-10T05:57:45;13.90;99.90
3562;DHT22;1795;52.074;4.754;2023-05-10T06:00:14;13.90;99.90
3562;DHT22;1795;52.074;4.754;2023-05-10T06:02:42;13.90;99.90
3562;DHT22;1795;52.074;4.754;2023-05-10T06:05:11;14.00;99.90
3562;DHT22;1795;52.074;4.754;2023-05-10T06:07:41;14.00;99.90
3562;DHT22;1795;52.074;4.754;2023-05-10T06:10:10;14.00;99.90
3562;DHT22;1795;52.074;4.754;2023-05-10T06:12:39;14.00;99.90
3562;DHT22;1795;52.074;4.754;2023-05-10T06:15:08;14.00;99.90
3562;DHT22;1795;52.074;4.754;2023-05-10T06:17:36;14.00;99.90
3562;DHT22;1795;52.074;4.754;2023-05-10T06:20:06;14.10;99.90
3562;DHT22;1795;52.074;4.754;2023-05-10T06:22:34;14.10;99.90
3562;DHT22;1795;52.074;4.754;2023-05-10T06:25:02;14.10;99.90
3562;DHT22;1795;52.074;4.754;2023-05-10T06:27:32;14.10;99.90
3562;DHT22;1795;52.074;4.754;2023-05-10T06:29:59;14.20;99.90
3562;DHT22;1795;52.074;4.754;2023-05-10T06:32:38;14.20;99.90
3562;DHT22;1795;52.074;4.754;2023-05-10T06:35:07;14.20;99.90
3562;DHT22;1795;52.074;4.754;2023-05-10T06:37:35;14.20;99.90
3562;DHT22;1795;52.074;4.754;2023-05-10T06:40:05;14.30;99.90
3562;DHT22;1795;52.074;4.754;2023-05-10T06:42:34;14.30;99.90
3562;DHT22;1795;52.074;4.754;2023-05-10T06:45:02;14.30;99.90
3562;DHT22;1795;52.074;4.754;2023-05-10T06:47:30;14.40;99.90
3562;DHT22;1795;52.074;4.754;2023-05-10T06:49:58;14.40;99.90
3562;DHT22;1795;52.074;4.754;2023-05-10T06:52:26;14.40;99.90
3562;DHT22;1795;52.074;4.754;2023-05-10T06:54:55;14.40;99.90
3562;DHT22;1795;52.074;4.754;2023-05-10T06:57:22;14.40;99.90
3562;DHT22;1795;52.074;4.754;2023-05-10T06:59:57;14.40;99.90
3562;DHT22;1795;52.074;4.754;2023-05-10T07:02:25;14.50;99.90
3562;DHT22;1795;52.074;4.754;2023-05-10T07:04:53;14.50;99.90
3562;DHT22;1795;52.074;4.754;2023-05-10T07:07:21;14.50;99.90
3562;DHT22;1795;52.074;4.754;2023-05-10T07:09:49;14.60;99.90
3562;DHT22;1795;52.074;4.754;2023-05-10T07:12:18;14.60;99.90
3562;DHT22;1795;52.074;4.754;2023-05-10T07:14:46;14.60;99.90
3562;DHT22;1795;52.074;4.754;2023-05-10T07:17:15;14.70;99.90
3562;DHT22;1795;52.074;4.754;2023-05-10T07:19:43;14.70;99.90
3562;DHT22;1795;52.074;4.754;2023-05-10T07:22:11;14.70;99.90
3562;DHT22;1795;52.074;4.754;2023-05-10T07:24:39;14.70;99.90
3562;DHT22;1795;52.074;4.754;2023-05-10T07:27:07;14.70;99.90
3562;DHT22;1795;52.074;4.754;2023-05-10T07:29:35;14.80;99.90
3562;DHT22;1795;52.074;4.754;2023-05-10T07:32:04;14.80;99.90
3562;DHT22;1795;52.074;4.754;2023-05-10T07:34:34;14.80;99.90
3562;DHT22;1795;52.074;4.754;2023-05-10T07:37:02;14.80;99.90
3562;DHT22;1795;52.074;4.754;2023-05-10T07:39:30;14.90;99.90
3562;DHT22;1795;52.074;4.754;2023-05-10T07:41:57;14.90;99.90
3562;DHT22;1795;52.074;4.754;2023-05-10T07:44:25;14.90;99.90
3562;DHT22;1795;52.074;4.754;2023-05-10T07:46:53;14.90;99.90
3562;DHT22;1795;52.074;4.754;2023-05-10T07:49:22;15.00;99.90
3562;DHT22;1795;52.074;4.754;2023-05-10T07:51:52;15.00;99.90
3562;DHT22;1795;52.074;4.754;2023-05-10T07:54:20;15.10;99.90
3562;DHT22;1795;52.074;4.754;2023-05-10T07:56:48;15.10;99.90
3562;DHT22;1795;52.074;4.754;2023-05-10T07:59:17;15.10;99.90
3562;DHT22;1795;52.074;4.754;2023-05-10T08:01:45;15.10;99.90
3562;DHT22;1795;52.074;4.754;2023-05-10T08:04:13;15.20;99.90
3562;DHT22;1795;52.074;4.754;2023-05-10T08:06:41;15.20;99.90
3562;DHT22;1795;52.074;4.754;2023-05-10T08:09:10;15.20;99.90
3562;DHT22;1795;52.074;4.754;2023-05-10T08:11:38;15.20;99.90
3562;DHT22;1795;52.074;4.754;2023-05-10T08:14:06;15.30;99.90
3562;DHT22;1795;52.074;4.754;2023-05-10T08:16:34;15.30;99.90
3562;DHT22;1795;52.074;4.754;2023-05-10T08:19:02;15.30;99.90
3562;DHT22;1795;52.074;4.754;2023-05-10T08:21:31;15.30;99.90
3562;DHT22;1795;52.074;4.754;2023-05-10T08:23:59;15.40;99.90
3562;DHT22;1795;52.074;4.754;2023-05-10T08:26:28;15.40;99.90
3562;DHT22;1795;52.074;4.754;2023-05-10T08:28:56;15.40;99.90
3562;DHT22;1795;52.074;4.754;2023-05-10T08:31:24;15.40;99.90
3562;DHT22;1795;52.074;4.754;2023-05-10T08:33:52;15.40;99.90
3562;DHT22;1795;52.074;4.754;2023-05-10T08:36:20;15.40;99.90
3562;DHT22;1795;52.074;4.754;2023-05-10T08:38:51;15.40;99.90
3562;DHT22;1795;52.074;4.754;2023-05-10T08:41:20;15.40;99.90
3562;DHT22;1795;52.074;4.754;2023-05-10T08:43:50;15.50;99.90
3562;DHT22;1795;52.074;4.754;2023-05-10T08:46:20;15.50;99.90
3562;DHT22;1795;52.074;4.754;2023-05-10T08:48:50;15.50;99.90
3562;DHT22;1795;52.074;4.754;2023-05-10T08:51:21;15.50;99.90
3562;DHT22;1795;52.074;4.754;2023-05-10T08:53:50;15.50;99.90
3562;DHT22;1795;52.074;4.754;2023-05-10T08:56:18;15.50;99.90
3562;DHT22;1795;52.074;4.754;2023-05-10T08:58:47;15.50;99.90
3562;DHT22;1795;52.074;4.754;2023-05-10T09:01:16;15.50;99.90
3562;DHT22;1795;52.074;4.754;2023-05-10T09:03:46;15.50;99.90
3562;DHT22;1795;52.074;4.754;2023-05-10T09:06:15;15.50;99.90
3562;DHT22;1795;52.074;4.754;2023-05-10T09:08:43;15.50;99.90
3562;DHT22;1795;52.074;4.754;2023-05-10T09:11:12;15.60;99.90
3562;DHT22;1795;52.074;4.754;2023-05-10T09:13:41;15.60;99.90
3562;DHT22;1795;52.074;4.754;2023-05-10T09:16:10;15.60;99.90
3562;DHT22;1795;52.074;4.754;2023-05-10T09:18:49;15.50;99.90
3562;DHT22;1795;52.074;4.754;2023-05-10T09:21:17;15.60;99.90
3562;DHT22;1795;52.074;4.754;2023-05-10T09:23:48;15.60;99.90
3562;DHT22;1795;52.074;4.754;2023-05-10T09:26:16;15.50;99.90
3562;DHT22;1795;52.074;4.754;2023-05-10T09:28:51;15.50;99.90
3562;DHT22;1795;52.074;4.754;2023-05-10T09:31:20;15.60;99.90
3562;DHT22;1795;52.074;4.754;2023-05-10T09:33:50;15.60;99.90
3562;DHT22;1795;52.074;4.754;2023-05-10T09:36:18;15.60;99.90
3562;DHT22;1795;52.074;4.754;2023-05-10T09:38:47;15.60;99.90
3562;DHT22;1795;52.074;4.754;2023-05-10T09:41:16;15.60;99.90
3562;DHT22;1795;52.074;4.754;2023-05-10T09:43:45;15.60;99.90
3562;DHT22;1795;52.074;4.754;2023-05-10T09:46:13;15.70;99.90
3562;DHT22;1795;52.074;4.754;2023-05-10T09:48:43;15.70;99.90
3562;DHT22;1795;52.074;4.754;2023-05-10T09:51:18;15.70;99.90
3562;DHT22;1795;52.074;4.754;2023-05-10T09:53:46;15.70;99.90
3562;DHT22;1795;52.074;4.754;2023-05-10T09:56:34;15.70;99.90
3562;DHT22;1795;52.074;4.754;2023-05-10T09:59:03;15.80;99.90
3562;DHT22;1795;52.074;4.754;2023-05-10T10:01:31;15.80;99.90
3562;DHT22;1795;52.074;4.754;2023-05-10T10:03:59;15.80;99.90
3562;DHT22;1795;52.074;4.754;2023-05-10T10:06:35;15.80;99.90
3562;DHT22;1795;52.074;4.754;2023-05-10T10:09:04;15.90;99.90
3562;DHT22;1795;52.074;4.754;2023-05-10T10:11:33;15.90;99.90
3562;DHT22;1795;52.074;4.754;2023-05-10T10:14:01;15.90;99.90
3562;DHT22;1795;52.074;4.754;2023-05-10T10:16:30;15.90;99.90
3562;DHT22;1795;52.074;4.754;2023-05-10T10:18:58;15.90;99.90
3562;DHT22;1795;52.074;4.754;2023-05-10T10:21:26;15.90;99.90
3562;DHT22;1795;52.074;4.754;2023-05-10T10:23:56;16.00;99.90
3562;DHT22;1795;52.074;4.754;2023-05-10T10:26:24;16.00;99.90
3562;DHT22;1795;52.074;4.754;2023-05-10T10:29:15;16.10;99.90
3562;DHT22;1795;52.074;4.754;2023-05-10T10:31:47;16.10;99.90
3562;DHT22;1795;52.074;4.754;2023-05-10T10:34:25;16.20;99.90
3562;DHT22;1795;52.074;4.754;2023-05-10T10:36:54;16.20;99.90
3562;DHT22;1795;52.074;4.754;2023-05-10T10:39:24;16.30;99.90
3562;DHT22;1795;52.074;4.754;2023-05-10T10:41:53;16.30;99.90
3562;DHT22;1795;52.074;4.754;2023-05-10T10:44:26;16.40;99.90
3562;DHT22;1795;52.074;4.754;2023-05-10T10:47:01;16.50;99.90
3562;DHT22;1795;52.074;4.754;2023-05-10T10:49:32;16.60;99.90
3562;DHT22;1795;52.074;4.754;2023-05-10T10:52:23;16.60;99.90
3562;DHT22;1795;52.074;4.754;2023-05-10T10:55:01;16.70;99.90
3562;DHT22;1795;52.074;4.754;2023-05-10T10:57:32;16.80;99.90
3562;DHT22;1795;52.074;4.754;2023-05-10T11:00:24;16.90;99.90
3562;DHT22;1795;52.074;4.754;2023-05-10T11:02:54;17.00;99.90
3562;DHT22;1795;52.074;4.754;2023-05-10T11:05:44;17.00;99.90
3562;DHT22;1795;52.074;4.754;2023-05-10T11:08:17;17.00;99.90
3562;DHT22;1795;52.074;4.754;2023-05-10T11:10:52;17.00;99.90
3562;DHT22;1795;52.074;4.754;2023-05-10T11:13:27;17.10;99.90
3562;DHT22;1795;52.074;4.754;2023-05-10T11:15:57;17.10;99.90
3562;DHT22;1795;52.074;4.754;2023-05-10T11:18:26;17.20;99.90
3562;DHT22;1795;52.074;4.754;2023-05-10T11:20:57;17.20;99.90
3562;DHT22;1795;52.074;4.754;2023-05-10T11:23:30;17.20;99.90
3562;DHT22;1795;52.074;4.754;2023-05-10T11:26:00;17.20;99.90
3562;DHT22;1795;52.074;4.754;2023-05-10T11:28:28;17.20;99.90
3562;DHT22;1795;52.074;4.754;2023-05-10T11:30:56;17.20;99.90
3562;DHT22;1795;52.074;4.754;2023-05-10T11:33:24;17.20;99.90
3562;DHT22;1795;52.074;4.754;2023-05-10T11:35:52;17.20;99.90
3562;DHT22;1795;52.074;4.754;2023-05-10T11:38:20;17.20;99.90
3562;DHT22;1795;52.074;4.754;2023-05-10T11:40:51;17.20;99.90
3562;DHT22;1795;52.074;4.754;2023-05-10T11:43:23;17.20;99.90
3562;DHT22;1795;52.074;4.754;2023-05-10T11:45:54;17.20;99.90
3562;DHT22;1795;52.074;4.754;2023-05-10T11:48:22;17.20;99.90
3562;DHT22;1795;52.074;4.754;2023-05-10T11:50:50;17.20;99.90
3562;DHT22;1795;52.074;4.754;2023-05-10T11:53:20;17.20;99.90
3562;DHT22;1795;52.074;4.754;2023-05-10T11:55:50;17.20;99.90
3562;DHT22;1795;52.074;4.754;2023-05-10T11:58:18;17.10;99.90
3562;DHT22;1795;52.074;4.754;2023-05-10T12:00:49;17.10;99.90
3562;DHT22;1795;52.074;4.754;2023-05-10T12:03:17;17.20;99.90
3562;DHT22;1795;52.074;4.754;2023-05-10T12:05:46;17.20;99.90
3562;DHT22;1795;52.074;4.754;2023-05-10T12:08:14;17.20;99.90
3562;DHT22;1795;52.074;4.754;2023-05-10T12:10:43;17.20;99.90
3562;DHT22;1795;52.074;4.754;2023-05-10T12:13:11;17.20;99.90
3562;DHT22;1795;52.074;4.754;2023-05-10T12:15:41;17.20;99.90
3562;DHT22;1795;52.074;4.754;2023-05-10T12:18:11;17.20;99.90
3562;DHT22;1795;52.074;4.754;2023-05-10T12:20:40;17.20;99.90
3562;DHT22;1795;52.074;4.754;2023-05-10T12:23:09;17.20;99.90
3562;DHT22;1795;52.074;4.754;2023-05-10T12:25:37;17.20;99.90
3562;DHT22;1795;52.074;4.754;2023-05-10T12:28:08;17.20;99.90
3562;DHT22;1795;52.074;4.754;2023-05-10T12:30:36;17.30;99.90
3562;DHT22;1795;52.074;4.754;2023-05-10T12:33:08;17.30;99.90
3562;DHT22;1795;52.074;4.754;2023-05-10T12:35:48;17.30;99.90
3562;DHT22;1795;52.074;4.754;2023-05-10T12:38:25;17.40;99.90
3562;DHT22;1795;52.074;4.754;2023-05-10T12:40:53;17.40;99.90
3562;DHT22;1795;52.074;4.754;2023-05-10T12:43:21;17.40;99.90
3562;DHT22;1795;52.074;4.754;2023-05-10T12:45:50;17.40;99.90
3562;DHT22;1795;52.074;4.754;2023-05-10T12:48:18;17.50;99.90
3562;DHT22;1795;52.074;4.754;2023-05-10T12:50:47;17.50;99.90
3562;DHT22;1795;52.074;4.754;2023-05-10T12:53:16;17.50;99.90
3562;DHT22;1795;52.074;4.754;2023-05-10T12:55:44;17.60;99.90
3562;DHT22;1795;52.074;4.754;2023-05-10T12:58:12;17.60;99.90
3562;DHT22;1795;52.074;4.754;2023-05-10T13:01:00;17.70;99.90
3562;DHT22;1795;52.074;4.754;2023-05-10T13:03:28;17.70;99.90
3562;DHT22;1795;52.074;4.754;2023-05-10T13:05:57;17.70;99.90
3562;DHT22;1795;52.074;4.754;2023-05-10T13:08:25;17.70;99.90
3562;DHT22;1795;52.074;4.754;2023-05-10T13:10:53;17.80;99.90
3562;DHT22;1795;52.074;4.754;2023-05-10T13:13:21;17.80;99.90
3562;DHT22;1795;52.074;4.754;2023-05-10T13:15:49;17.90;99.90
3562;DHT22;1795;52.074;4.754;2023-05-10T13:18:17;17.90;99.90
3562;DHT22;1795;52.074;4.754;2023-05-10T13:20:45;17.90;99.90
3562;DHT22;1795;52.074;4.754;2023-05-10T13:23:14;18.00;99.90
3562;DHT22;1795;52.074;4.754;2023-05-10T13:25:42;18.00;99.90
3562;DHT22;1795;52.074;4.754;2023-05-10T13:28:10;18.00;99.90
3562;DHT22;1795;52.074;4.754;2023-05-10T13:30:38;18.10;99.90
3562;DHT22;1795;52.074;4.754;2023-05-10T13:33:05;18.10;99.90
3562;DHT22;1795;52.074;4.754;2023-05-10T13:35:33;18.20;99.90
3562;DHT22;1795;52.074;4.754;2023-05-10T13:38:01;18.20;99.90
3562;DHT22;1795;52.074;4.754;2023-05-10T13:40:31;18.20;99.90
3562;DHT22;1795;52.074;4.754;2023-05-10T13:42:59;18.20;99.90
3562;DHT22;1795;52.074;4.754;2023-05-10T13:45:26;18.20;99.90
3562;DHT22;1795;52.074;4.754;2023-05-10T13:47:54;18.20;99.90
3562;DHT22;1795;52.074;4.754;2023-05-10T13:50:22;18.20;99.90
3562;DHT22;1795;52.074;4.754;2023-05-10T13:52:50;18.20;99.90
3562;DHT22;1795;52.074;4.754;2023-05-10T13:55:18;18.20;99.90
3562;DHT22;1795;52.074;4.754;2023-05-10T13:57:47;18.20;99.90
3562;DHT22;1795;52.074;4.754;2023-05-10T14:00:16;18.20;99.90
3562;DHT22;1795;52.074;4.754;2023-05-10T14:02:44;18.20;99.90
3562;DHT22;1795;52.074;4.754;2023-05-10T14:05:12;18.20;99.90
3562;DHT22;1795;52.074;4.754;2023-05-10T14:07:40;18.20;99.90
3562;DHT22;1795;52.074;4.754;2023-05-10T14:10:08;18.20;99.90
3562;DHT22;1795;52.074;4.754;2023-05-10T14:12:36;18.20;99.90
3562;DHT22;1795;52.074;4.754;2023-05-10T14:15:06;18.20;99.90
3562;DHT22;1795;52.074;4.754;2023-05-10T14:17:37;18.20;99.90
3562;DHT22;1795;52.074;4.754;2023-05-10T14:20:07;18.10;99.90
3562;DHT22;1795;52.074;4.754;2023-05-10T14:22:38;18.10;99.90
3562;DHT22;1795;52.074;4.754;2023-05-10T14:25:07;18.10;99.90
3562;DHT22;1795;52.074;4.754;2023-05-10T14:27:35;18.10;99.90
3562;DHT22;1795;52.074;4.754;2023-05-10T14:30:04;18.10;99.90
3562;DHT22;1795;52.074;4.754;2023-05-10T14:32:33;18.00;99.90
3562;DHT22;1795;52.074;4.754;2023-05-10T14:35:03;18.00;99.90
3562;DHT22;1795;52.074;4.754;2023-05-10T14:37:32;18.00;99.90
3562;DHT22;1795;52.074;4.754;2023-05-10T14:40:00;18.00;99.90
3562;DHT22;1795;52.074;4.754;2023-05-10T14:42:29;18.00;99.90
3562;DHT22;1795;52.074;4.754;2023-05-10T14:44:57;18.00;99.90
3562;DHT22;1795;52.074;4.754;2023-05-10T14:47:25;18.00;99.90
3562;DHT22;1795;52.074;4.754;2023-05-10T14:49:55;18.00;99.90
3562;DHT22;1795;52.074;4.754;2023-05-10T14:52:23;18.00;99.90
3562;DHT22;1795;52.074;4.754;2023-05-10T14:54:51;18.00;99.90
3562;DHT22;1795;52.074;4.754;2023-05-10T14:57:19;18.00;99.90
3562;DHT22;1795;52.074;4.754;2023-05-10T14:59:47;18.00;99.90
3562;DHT22;1795;52.074;4.754;2023-05-10T15:02:15;18.00;99.90
3562;DHT22;1795;52.074;4.754;2023-05-10T15:04:44;18.00;99.90
3562;DHT22;1795;52.074;4.754;2023-05-10T15:07:13;18.00;99.90
3562;DHT22;1795;52.074;4.754;2023-05-10T15:09:42;18.00;99.90
3562;DHT22;1795;52.074;4.754;2023-05-10T15:12:11;18.00;99.90
3562;DHT22;1795;52.074;4.754;2023-05-10T15:14:39;18.00;99.90
3562;DHT22;1795;52.074;4.754;2023-05-10T15:17:07;18.00;99.90
3562;DHT22;1795;52.074;4.754;2023-05-10T15:19:35;18.10;99.90
3562;DHT22;1795;52.074;4.754;2023-05-10T15:22:04;18.10;99.90
3562;DHT22;1795;52.074;4.754;2023-05-10T15:24:34;18.10;99.90
3562;DHT22;1795;52.074;4.754;2023-05-10T15:27:02;18.10;99.90
3562;DHT22;1795;52.074;4.754;2023-05-10T15:29:29;18.10;99.90
3562;DHT22;1795;52.074;4.754;2023-05-10T15:31:58;18.10;99.90
3562;DHT22;1795;52.074;4.754;2023-05-10T15:34:26;18.10;99.90
3562;DHT22;1795;52.074;4.754;2023-05-10T15:36:55;18.10;99.90
3562;DHT22;1795;52.074;4.754;2023-05-10T15:39:23;18.20;99.90
3562;DHT22;1795;52.074;4.754;2023-05-10T15:41:52;18.20;99.90
3562;DHT22;1795;52.074;4.754;2023-05-10T15:44:20;18.20;99.90
3562;DHT22;1795;52.074;4.754;2023-05-10T15:46:48;18.20;99.90
3562;DHT22;1795;52.074;4.754;2023-05-10T15:49:17;18.10;99.90
3562;DHT22;1795;52.074;4.754;2023-05-10T15:51:45;18.10;99.90
3562;DHT22;1795;52.074;4.754;2023-05-10T15:54:13;18.10;99.90
3562;DHT22;1795;52.074;4.754;2023-05-10T15:56:41;18.10;99.90
3562;DHT22;1795;52.074;4.754;2023-05-10T15:59:10;18.10;99.90
3562;DHT22;1795;52.074;4.754;2023-05-10T16:01:38;18.10;99.90
3562;DHT22;1795;52.074;4.754;2023-05-10T16:04:06;18.10;99.90
3562;DHT22;1795;52.074;4.754;2023-05-10T16:06:35;18.10;99.90
3562;DHT22;1795;52.074;4.754;2023-05-10T16:09:04;18.10;99.90
3562;DHT22;1795;52.074;4.754;2023-05-10T16:11:32;18.00;99.90
3562;DHT22;1795;52.074;4.754;2023-05-10T16:14:00;18.00;99.90
3562;DHT22;1795;52.074;4.754;2023-05-10T16:16:29;18.00;99.90
3562;DHT22;1795;52.074;4.754;2023-05-10T16:18:58;18.00;99.90